Sun City West, Arizona
Current Conditions -  °F | °C
As of 2:58 PM on Tuesday 25 Nov 2014 (Local Time) from KLUF Reporting Station
Clear Clear  
Wind Chill: 67°   Ceiling: Unl
Heat Index: 67°   Visibility: 7mi
Dew Point:   Wind: 3mph
Humidity: 8%   Direction: NA
Pressure: 30.31"   Gusts: NA
Location:  33.67°N, 112.35°W
Report Text: KLUF 252158Z AUTO VRB03KT 7SM CLR 19/M17 A3031 RMK AO2 SLP261 T01921167 $
Loading
Personal Weather Stations






























Interactive Weather Map New forecast layout! Learn more

10-Day Weather Forecast

Advertisements
Track Severe Weather on mobile